createdAt,value
2017-06-14T00:02:12.224Z,8.03
2017-06-14T00:04:41.415Z,9.10
2017-06-14T00:07:10.083Z,7.63
2017-06-14T00:09:38.535Z,8.70
2017-06-14T00:12:07.038Z,9.17
2017-06-14T00:14:35.499Z,7.20
2017-06-14T00:17:03.931Z,8.07
2017-06-14T00:19:32.358Z,8.47
2017-06-14T00:22:00.796Z,8.17
2017-06-14T00:24:30.055Z,8.27
2017-06-14T00:26:58.511Z,8.00
2017-06-14T00:29:26.946Z,8.50
2017-06-14T00:31:55.420Z,8.23
2017-06-14T00:34:23.890Z,8.80
2017-06-14T00:36:52.448Z,8.60
2017-06-14T00:39:20.879Z,8.60
2017-06-14T00:41:49.324Z,8.87
2017-06-14T00:44:17.765Z,6.90
2017-06-14T00:46:46.951Z,7.70
2017-06-14T00:49:16.147Z,8.30
2017-06-14T00:51:45.370Z,7.23
2017-06-14T00:54:13.955Z,8.07
2017-06-14T00:56:42.399Z,7.80
2017-06-14T00:59:10.818Z,8.90
2017-06-14T01:01:39.258Z,8.20
2017-06-14T01:04:08.087Z,8.93
2017-06-14T01:06:36.514Z,8.33
2017-06-14T01:09:04.285Z,8.57
2017-06-14T01:11:32.771Z,9.07
2017-06-14T01:14:01.203Z,8.37
2017-06-14T01:16:29.495Z,9.10
2017-06-14T01:18:57.941Z,8.80
2017-06-14T01:21:27.144Z,8.50
2017-06-14T01:23:56.343Z,8.33
2017-06-14T01:26:25.559Z,10.03
2017-06-14T01:28:53.978Z,8.50
2017-06-14T01:31:22.426Z,9.03
2017-06-14T01:33:50.943Z,9.07
2017-06-14T01:36:19.392Z,8.83
2017-06-14T01:38:47.811Z,8.67
2017-06-14T01:41:16.250Z,8.87
2017-06-14T01:43:44.687Z,9.27
2017-06-14T01:46:13.135Z,9.17
2017-06-14T01:48:41.617Z,9.60
2017-06-14T01:51:09.375Z,11.20
2017-06-14T01:53:37.818Z,9.73
2017-06-14T01:56:07.035Z,10.10
2017-06-14T01:58:35.455Z,8.40
2017-06-14T02:01:03.899Z,8.87
2017-06-14T02:03:33.087Z,9.00
2017-06-14T02:06:02.275Z,9.40
2017-06-14T02:08:30.710Z,9.63
2017-06-14T02:10:59.149Z,8.73
2017-06-14T02:13:28.342Z,10.03
2017-06-14T02:15:57.584Z,8.40
2017-06-14T02:18:25.999Z,9.63
2017-06-14T02:20:54.449Z,11.03
2017-06-14T02:23:22.895Z,9.97
2017-06-14T02:25:52.132Z,9.40
2017-06-14T02:28:20.563Z,8.97
2017-06-14T02:30:48.999Z,8.80
2017-06-14T02:33:17.443Z,9.00
2017-06-14T02:35:46.626Z,8.40
2017-06-14T02:38:15.951Z,8.17
2017-06-14T02:40:44.402Z,10.17
2017-06-14T02:43:12.838Z,9.53
2017-06-14T02:45:41.340Z,9.33
2017-06-14T02:48:09.779Z,9.30
2017-06-14T02:50:38.977Z,8.70
2017-06-14T02:53:07.417Z,10.30
2017-06-14T02:55:35.868Z,8.83
2017-06-14T02:58:04.295Z,10.47
2017-06-14T03:00:32.799Z,9.03
2017-06-14T03:03:01.996Z,9.17
2017-06-14T03:05:31.196Z,9.20
2017-06-14T03:08:00.398Z,11.90
2017-06-14T03:10:29.615Z,11.20
2017-06-14T03:12:58.188Z,10.30
2017-06-14T03:15:26.621Z,10.43
2017-06-14T03:17:55.063Z,10.93
2017-06-14T03:20:29.131Z,10.10
2017-06-14T03:22:57.575Z,12.30
2017-06-14T03:25:26.021Z,11.83
2017-06-14T03:27:55.212Z,10.83
2017-06-14T03:30:24.458Z,11.03
2017-06-14T03:32:53.575Z,12.17
2017-06-14T03:35:22.110Z,10.83
2017-06-14T03:37:50.687Z,12.27
2017-06-14T03:40:19.920Z,9.83
2017-06-14T03:42:48.351Z,10.70
2017-06-14T03:45:16.783Z,12.07
2017-06-14T03:47:45.227Z,12.80
2017-06-14T03:50:14.488Z,9.83
2017-06-14T03:52:42.927Z,10.97
2017-06-14T03:55:11.352Z,10.40
2017-06-14T03:57:39.880Z,11.33
2017-06-14T04:00:09.087Z,11.13
2017-06-14T04:02:37.534Z,10.63
2017-06-14T04:05:05.982Z,10.70
2017-06-14T04:07:34.412Z,10.70
2017-06-14T04:10:03.627Z,9.77
2017-06-14T04:12:32.075Z,10.20
2017-06-14T04:15:00.503Z,10.80
2017-06-14T04:17:28.948Z,10.33
2017-06-14T04:19:57.391Z,9.70
2017-06-14T04:22:26.044Z,10.37
2017-06-14T04:24:54.459Z,10.60
2017-06-14T04:27:22.894Z,10.67
2017-06-14T04:29:52.102Z,10.20
2017-06-14T04:32:20.547Z,8.50
2017-06-14T04:34:49.006Z,9.80
2017-06-14T04:37:17.490Z,9.83
2017-06-14T04:39:46.023Z,9.47
2017-06-14T04:42:15.286Z,11.93
2017-06-14T04:44:43.722Z,9.83
2017-06-14T04:47:12.272Z,12.53
2017-06-14T04:49:40.709Z,12.87
2017-06-14T04:52:09.154Z,9.60
2017-06-14T04:54:38.359Z,11.10
2017-06-14T04:57:06.802Z,9.53
2017-06-14T04:59:35.233Z,9.17
2017-06-14T05:02:03.647Z,9.23
2017-06-14T05:04:32.095Z,10.20
2017-06-14T05:07:00.538Z,9.27
2017-06-14T05:09:28.970Z,8.53
2017-06-14T05:11:57.421Z,10.73
2017-06-14T05:14:26.639Z,8.97
2017-06-14T05:16:55.082Z,9.37
2017-06-14T05:19:23.519Z,8.93
2017-06-14T05:21:51.959Z,9.30
2017-06-14T05:24:21.164Z,9.93
2017-06-14T05:26:50.435Z,7.93
2017-06-14T05:29:18.879Z,9.10
2017-06-14T05:31:47.303Z,8.53
2017-06-14T05:34:15.839Z,8.70
2017-06-14T05:36:44.288Z,9.13
2017-06-14T05:39:13.481Z,8.80
2017-06-14T05:41:42.666Z,8.40
2017-06-14T05:44:11.110Z,8.30
2017-06-14T05:46:39.528Z,8.10
2017-06-14T05:49:07.972Z,8.13
2017-06-14T05:51:36.450Z,8.70
2017-06-14T05:54:04.868Z,8.10
2017-06-14T05:56:33.312Z,9.43
2017-06-14T05:59:01.736Z,8.70
2017-06-14T06:01:30.183Z,11.00
2017-06-14T06:03:58.735Z,10.43
2017-06-14T06:06:27.182Z,8.87
2017-06-14T06:08:55.604Z,8.63
2017-06-14T06:11:24.047Z,8.33
2017-06-14T06:13:52.769Z,7.93
2017-06-14T06:16:21.399Z,13.53
2017-06-14T06:18:49.843Z,8.10
2017-06-14T06:21:18.312Z,10.43
2017-06-14T06:23:46.751Z,11.00
2017-06-14T06:26:15.181Z,11.13
2017-06-14T06:28:43.629Z,8.27
2017-06-14T06:31:12.052Z,7.97
2017-06-14T06:33:40.471Z,8.00
2017-06-14T06:36:08.914Z,8.13
2017-06-14T06:38:37.347Z,8.40
2017-06-14T06:41:05.799Z,12.63
2017-06-14T06:43:34.276Z,7.90
2017-06-14T06:46:02.708Z,12.87
2017-06-14T06:48:31.138Z,7.97
2017-06-14T06:50:59.599Z,7.80
2017-06-14T06:53:28.147Z,7.53
2017-06-14T06:55:56.599Z,9.13
2017-06-14T06:58:25.016Z,11.10
2017-06-14T07:00:53.468Z,17.40
2017-06-14T07:03:21.914Z,11.10
2017-06-14T07:05:50.363Z,6.93
2017-06-14T07:08:18.802Z,8.40
2017-06-14T07:10:47.242Z,7.43
2017-06-14T07:13:15.691Z,9.27
2017-06-14T07:15:44.032Z,7.40
2017-06-14T07:18:12.670Z,7.20
2017-06-14T07:20:41.880Z,6.80
2017-06-14T07:23:10.345Z,11.23
2017-06-14T07:25:38.778Z,9.90
2017-06-14T07:28:07.220Z,5.73
2017-06-14T07:30:35.644Z,5.70
2017-06-14T07:33:04.087Z,5.87
2017-06-14T07:35:33.289Z,5.90
2017-06-14T07:38:02.477Z,6.00
2017-06-14T07:40:30.915Z,6.07
2017-06-14T07:43:00.063Z,7.87
2017-06-14T07:45:29.370Z,5.70
2017-06-14T07:47:58.568Z,5.87
2017-06-14T07:50:27.761Z,7.07
2017-06-14T07:52:56.199Z,6.10
2017-06-14T07:55:24.646Z,6.97
2017-06-14T07:57:53.109Z,6.00
2017-06-14T08:00:22.303Z,5.73
2017-06-14T08:02:51.628Z,7.80
2017-06-14T08:05:20.067Z,6.40
2017-06-14T08:07:48.590Z,5.80
2017-06-14T08:10:17.134Z,7.00
2017-06-14T08:12:45.580Z,6.20
2017-06-14T08:15:14.020Z,6.67
2017-06-14T08:17:43.225Z,6.07
2017-06-14T08:20:12.449Z,5.80
2017-06-14T08:22:40.876Z,6.97
2017-06-14T08:25:09.295Z,6.90
2017-06-14T08:27:38.517Z,5.73
2017-06-14T08:30:06.945Z,6.83
2017-06-14T08:32:35.453Z,5.90
2017-06-14T08:35:04.679Z,8.53
2017-06-14T08:37:33.107Z,5.70
2017-06-14T08:40:01.538Z,6.40
2017-06-14T08:42:30.019Z,5.37
2017-06-14T08:44:58.487Z,6.43
2017-06-14T08:47:27.032Z,6.23
2017-06-14T08:49:55.467Z,10.53
2017-06-14T08:52:23.957Z,6.20
2017-06-14T08:54:52.363Z,6.00
2017-06-14T08:57:20.789Z,6.03
2017-06-14T08:59:50.005Z,5.77
2017-06-14T09:02:18.608Z,6.47
2017-06-14T09:04:47.055Z,5.80
2017-06-14T09:07:16.299Z,14.10
2017-06-14T09:09:44.727Z,8.63
2017-06-14T09:12:13.923Z,6.40
2017-06-14T09:14:43.130Z,7.10
2017-06-14T09:17:12.323Z,8.30
2017-06-14T09:19:41.555Z,11.23
2017-06-14T09:22:10.020Z,6.10
2017-06-14T09:24:39.284Z,7.17
2017-06-14T09:27:07.720Z,6.67
2017-06-14T09:29:36.168Z,7.07
2017-06-14T09:32:05.381Z,6.90
2017-06-14T09:34:34.681Z,7.67
2017-06-14T09:37:03.891Z,5.43
2017-06-14T09:39:32.335Z,9.57
2017-06-14T09:42:00.771Z,8.07
2017-06-14T09:44:28.876Z,5.60
2017-06-14T09:46:57.355Z,5.90
2017-06-14T09:49:25.794Z,6.67
2017-06-14T09:51:54.294Z,7.23
2017-06-14T09:54:22.726Z,5.70
2017-06-14T09:56:51.152Z,7.47
2017-06-14T09:59:19.582Z,4.93
2017-06-14T10:01:48.022Z,6.10
2017-06-14T10:04:16.494Z,6.53
2017-06-14T10:06:44.910Z,7.70
2017-06-14T10:09:13.335Z,9.20
2017-06-14T10:11:42.551Z,5.73
2017-06-14T10:14:10.983Z,8.17
2017-06-14T10:16:39.438Z,7.00
2017-06-14T10:19:07.912Z,6.50
2017-06-14T10:21:36.364Z,10.60
2017-06-14T10:24:05.571Z,6.20
2017-06-14T10:26:34.027Z,6.27
2017-06-14T10:29:03.227Z,8.07
2017-06-14T10:31:32.427Z,5.63
2017-06-14T10:34:01.673Z,6.30
2017-06-14T10:36:30.084Z,5.77
2017-06-14T10:38:58.525Z,6.97
2017-06-14T10:41:28.583Z,6.03
2017-06-14T10:43:57.101Z,8.33
2017-06-14T10:46:25.540Z,6.50
2017-06-14T10:48:54.004Z,7.20
2017-06-14T10:51:22.443Z,5.60
2017-06-14T10:53:50.961Z,7.10
2017-06-14T10:56:19.408Z,6.47
2017-06-14T10:58:47.849Z,7.53
2017-06-14T11:01:16.286Z,6.73
2017-06-14T11:03:44.712Z,8.37
2017-06-14T11:06:13.160Z,6.27
2017-06-14T11:08:41.603Z,6.00
2017-06-14T11:11:10.064Z,8.77
2017-06-14T11:13:38.470Z,6.53
2017-06-14T11:16:06.927Z,6.07
2017-06-14T11:18:35.355Z,5.33
2017-06-14T11:21:03.797Z,6.10
2017-06-14T11:23:32.101Z,6.37
2017-06-14T11:26:00.541Z,5.73
2017-06-14T11:28:28.964Z,6.13
2017-06-14T11:30:57.407Z,5.70
2017-06-14T11:33:25.832Z,10.03
2017-06-14T11:35:54.267Z,7.53
2017-06-14T11:38:22.695Z,8.70
2017-06-14T11:40:51.149Z,9.43
2017-06-14T11:43:19.616Z,6.00
2017-06-14T11:45:48.055Z,5.93
2017-06-14T11:48:16.487Z,5.80
2017-06-14T11:50:44.934Z,6.33
2017-06-14T11:53:13.359Z,6.43
2017-06-14T11:55:41.806Z,5.87
2017-06-14T11:58:10.219Z,6.97
2017-06-14T12:00:38.647Z,11.83
2017-06-14T12:03:07.103Z,8.00
2017-06-14T12:05:35.528Z,7.00
2017-06-14T12:08:03.975Z,6.60
2017-06-14T12:10:32.549Z,8.73
2017-06-14T12:13:00.983Z,5.90
2017-06-14T12:15:29.410Z,5.63
2017-06-14T12:17:57.840Z,5.83
2017-06-14T12:20:26.287Z,7.90
2017-06-14T12:22:55.473Z,6.03
2017-06-14T12:25:23.903Z,6.60
2017-06-14T12:27:52.355Z,7.57
2017-06-14T12:30:20.792Z,5.60
2017-06-14T12:32:49.230Z,6.83
2017-06-14T12:35:17.643Z,8.10
2017-06-14T12:37:46.092Z,6.73
2017-06-14T12:40:14.528Z,6.50
2017-06-14T12:42:42.969Z,7.53
2017-06-14T12:45:12.122Z,5.57
2017-06-14T12:47:41.339Z,4.70
2017-06-14T12:50:09.771Z,6.60
2017-06-14T12:52:38.210Z,7.50
2017-06-14T12:55:06.651Z,5.37
2017-06-14T12:57:35.091Z,5.13
2017-06-14T13:00:03.551Z,5.37
2017-06-14T13:02:32.010Z,5.17
2017-06-14T13:05:00.455Z,5.37
2017-06-14T13:07:29.022Z,6.33
2017-06-14T13:09:57.497Z,7.47
2017-06-14T13:12:25.931Z,5.23
2017-06-14T13:14:54.361Z,5.43
2017-06-14T13:17:22.795Z,7.40
2017-06-14T13:19:52.016Z,5.63
2017-06-14T13:22:20.459Z,6.00
2017-06-14T13:24:48.950Z,5.10
2017-06-14T13:27:17.386Z,5.90
2017-06-14T13:29:45.816Z,5.40
2017-06-14T13:32:14.259Z,4.80
2017-06-14T13:34:42.686Z,7.10
2017-06-14T13:37:11.887Z,4.97
2017-06-14T13:39:40.358Z,5.20
2017-06-14T13:42:08.799Z,5.17
2017-06-14T13:44:37.221Z,4.97
2017-06-14T13:47:05.735Z,4.60
2017-06-14T13:49:34.216Z,4.67
2017-06-14T13:52:03.410Z,5.07
2017-06-14T13:54:31.855Z,4.70
2017-06-14T13:57:00.340Z,7.30
2017-06-14T13:59:28.786Z,4.30
2017-06-14T14:01:57.260Z,6.80
2017-06-14T14:04:25.671Z,6.17
2017-06-14T14:06:54.133Z,5.30
2017-06-14T14:09:22.567Z,5.90
2017-06-14T14:11:51.009Z,6.40
2017-06-14T14:14:19.512Z,5.43
2017-06-14T14:16:47.978Z,7.80
2017-06-14T14:19:16.425Z,5.60
2017-06-14T14:21:44.867Z,6.87
2017-06-14T14:24:13.359Z,4.83
2017-06-14T14:26:42.658Z,5.63
2017-06-14T14:29:11.862Z,5.63
2017-06-14T14:31:41.108Z,5.40
2017-06-14T14:34:09.583Z,6.20
2017-06-14T14:36:38.041Z,5.00
2017-06-14T14:39:06.474Z,4.80
2017-06-14T14:41:34.903Z,5.10
2017-06-14T14:44:03.359Z,4.90
2017-06-14T14:46:32.559Z,4.77
2017-06-14T14:49:00.999Z,6.83
2017-06-14T14:51:29.423Z,5.07
2017-06-14T14:53:57.851Z,6.00
2017-06-14T14:56:26.307Z,5.43
2017-06-14T14:58:54.783Z,5.53
2017-06-14T15:01:23.967Z,5.93
2017-06-14T15:03:53.316Z,5.70
2017-06-14T15:06:21.751Z,5.00
2017-06-14T15:08:50.207Z,5.60
2017-06-14T15:11:18.630Z,5.03
2017-06-14T15:13:47.927Z,5.03
2017-06-14T15:16:17.128Z,4.70
2017-06-14T15:18:46.316Z,5.20
2017-06-14T15:21:15.523Z,4.93
2017-06-14T15:23:44.716Z,10.23
2017-06-14T15:26:14.001Z,7.10
2017-06-14T15:28:42.544Z,5.13
2017-06-14T15:31:10.956Z,5.13
2017-06-14T15:33:39.392Z,5.60
2017-06-14T15:36:09.272Z,6.37
2017-06-14T15:38:37.723Z,10.40
2017-06-14T15:41:06.254Z,4.80
2017-06-14T15:43:35.383Z,5.10
2017-06-14T15:46:03.942Z,5.10
2017-06-14T15:48:32.413Z,5.23
2017-06-14T15:51:01.724Z,6.70
2017-06-14T15:53:30.918Z,5.13
2017-06-14T15:56:00.139Z,6.00
2017-06-14T15:58:28.552Z,5.57
2017-06-14T16:00:57.003Z,5.10
2017-06-14T16:03:25.456Z,4.87
2017-06-14T16:05:54.650Z,4.87
2017-06-14T16:08:23.855Z,7.90
2017-06-14T16:10:53.071Z,9.17
2017-06-14T16:13:21.506Z,5.37
2017-06-14T16:15:50.027Z,5.57
2017-06-14T16:18:18.495Z,4.80
2017-06-14T16:20:46.932Z,5.40
2017-06-14T16:23:15.351Z,5.63
2017-06-14T16:25:44.575Z,5.17
2017-06-14T16:28:13.195Z,4.97
2017-06-14T16:30:41.640Z,5.13
2017-06-14T16:33:10.855Z,4.97
2017-06-14T16:35:40.734Z,5.80
2017-06-14T16:38:09.949Z,4.13
2017-06-14T16:40:39.200Z,5.13
2017-06-14T16:43:07.691Z,6.20
2017-06-14T16:45:36.150Z,5.03
2017-06-14T16:48:04.596Z,5.40
2017-06-14T16:50:33.740Z,6.33
2017-06-14T16:53:02.265Z,4.60
2017-06-14T16:55:31.656Z,4.63
2017-06-14T16:58:00.274Z,6.50
2017-06-14T17:00:28.751Z,4.27
2017-06-14T17:02:57.195Z,4.90
2017-06-14T17:05:25.641Z,6.33
2017-06-14T17:07:54.080Z,5.07
2017-06-14T17:10:22.519Z,4.93
2017-06-14T17:12:50.956Z,5.37
2017-06-14T17:15:20.226Z,5.40
2017-06-14T17:17:48.658Z,4.53
2017-06-14T17:20:17.114Z,4.70
2017-06-14T17:22:46.314Z,5.83
2017-06-14T17:25:15.557Z,5.20
2017-06-14T17:27:45.426Z,6.17
2017-06-14T17:30:14.652Z,5.57
2017-06-14T17:32:43.236Z,4.60
2017-06-14T17:35:11.668Z,5.10
2017-06-14T17:37:40.139Z,5.67
2017-06-14T17:40:08.586Z,4.80
2017-06-14T17:42:37.047Z,4.10
2017-06-14T17:45:05.559Z,4.50
2017-06-14T17:47:34.006Z,4.90
2017-06-14T17:50:03.300Z,4.70
2017-06-14T17:52:32.515Z,4.90
2017-06-14T17:55:00.974Z,4.67
2017-06-14T17:57:29.476Z,5.50
2017-06-14T17:59:58.699Z,5.40
2017-06-14T18:02:28.695Z,6.70
2017-06-14T18:04:57.139Z,5.47
2017-06-14T18:07:25.599Z,5.50
2017-06-14T18:09:54.068Z,5.40
2017-06-14T18:12:23.006Z,5.53
2017-06-14T18:14:51.466Z,5.27
2017-06-14T18:17:19.907Z,5.83
2017-06-14T18:19:48.747Z,5.27
2017-06-14T18:22:17.174Z,5.60
2017-06-14T18:24:46.459Z,5.30
2017-06-14T18:27:15.663Z,5.63
2017-06-14T18:29:44.843Z,6.83
2017-06-14T18:32:13.298Z,6.90
2017-06-14T18:34:41.761Z,6.20
2017-06-14T18:37:10.202Z,9.07
2017-06-14T18:39:39.531Z,6.87
2017-06-14T18:42:07.974Z,6.30
2017-06-14T18:44:36.400Z,6.50
2017-06-14T18:47:04.849Z,8.30
2017-06-14T18:49:34.054Z,7.70
2017-06-14T18:52:03.262Z,8.17
2017-06-14T18:54:31.787Z,7.20
2017-06-14T18:57:00.228Z,6.60
2017-06-14T18:59:29.355Z,6.87
2017-06-14T19:01:57.779Z,5.80
2017-06-14T19:04:26.287Z,8.70
2017-06-14T19:06:54.731Z,6.57
2017-06-14T19:09:23.262Z,6.10
2017-06-14T19:11:51.695Z,5.27
2017-06-14T19:14:20.154Z,6.07
2017-06-14T19:16:48.561Z,6.73
2017-06-14T19:19:17.006Z,6.60
2017-06-14T19:21:45.668Z,7.03
2017-06-14T19:24:14.147Z,6.50
2017-06-14T19:27:01.250Z,6.73
2017-06-14T19:29:30.242Z,5.80
2017-06-14T19:31:59.267Z,6.07
2017-06-14T19:34:27.511Z,10.70
2017-06-14T19:36:56.735Z,7.30
2017-06-14T19:39:25.187Z,7.27
2017-06-14T19:41:53.624Z,6.00
2017-06-14T19:44:22.055Z,8.30
2017-06-14T19:46:51.416Z,6.17
2017-06-14T19:49:19.843Z,7.97
2017-06-14T19:51:48.286Z,7.83
2017-06-14T19:54:16.715Z,6.57
2017-06-14T19:56:45.936Z,7.20
2017-06-14T19:59:14.366Z,9.40
2017-06-14T20:01:43.008Z,8.30
2017-06-14T20:04:11.496Z,7.03
2017-06-14T20:06:39.915Z,7.13
2017-06-14T20:09:08.190Z,6.93
2017-06-14T20:11:36.642Z,8.13
2017-06-14T20:14:05.075Z,7.00
2017-06-14T20:16:33.524Z,6.43
2017-06-14T20:19:01.953Z,6.57
2017-06-14T20:21:30.770Z,7.77
2017-06-14T20:24:00.142Z,6.00
2017-06-14T20:26:28.992Z,7.10
2017-06-14T20:28:57.444Z,7.63
2017-06-14T20:31:25.891Z,7.77
2017-06-14T20:33:55.100Z,6.50
2017-06-14T20:36:23.542Z,6.23
2017-06-14T20:38:52.007Z,8.10
2017-06-14T20:41:20.428Z,7.13
2017-06-14T20:43:49.680Z,7.77
2017-06-14T20:46:18.123Z,7.40
2017-06-14T20:48:46.568Z,7.47
2017-06-14T20:51:15.023Z,6.70
2017-06-14T20:53:43.493Z,7.73
2017-06-14T20:56:12.069Z,8.80
2017-06-14T20:58:40.521Z,8.63
2017-06-14T21:01:09.655Z,6.77
2017-06-14T21:03:38.092Z,6.00
2017-06-14T21:06:06.533Z,6.37
2017-06-14T21:08:34.966Z,6.90
2017-06-14T21:11:04.192Z,6.57
2017-06-14T21:13:32.629Z,6.60
2017-06-14T21:16:01.083Z,7.30
2017-06-14T21:18:29.527Z,6.43
2017-06-14T21:20:58.727Z,7.40
2017-06-14T21:23:27.187Z,7.73
2017-06-14T21:25:56.387Z,8.13
2017-06-14T21:28:25.674Z,8.40
2017-06-14T21:30:54.122Z,8.47
2017-06-14T21:33:22.575Z,8.10
2017-06-14T21:35:51.027Z,10.13
2017-06-14T21:38:20.243Z,8.63
2017-06-14T21:40:49.072Z,7.90
2017-06-14T21:43:17.620Z,7.33
2017-06-14T21:45:46.087Z,9.53
2017-06-14T21:48:15.308Z,9.77
2017-06-14T21:50:43.739Z,8.90
2017-06-14T21:53:12.179Z,8.23
2017-06-14T21:55:40.669Z,16.13
2017-06-14T21:58:09.959Z,8.67
2017-06-14T22:00:38.466Z,8.53
2017-06-14T22:03:06.895Z,9.43
2017-06-14T22:05:36.098Z,8.60
2017-06-14T22:08:04.530Z,8.00
2017-06-14T22:10:32.973Z,9.50
2017-06-14T22:13:02.376Z,8.40
2017-06-14T22:15:31.570Z,14.13
2017-06-14T22:18:00.810Z,9.17
2017-06-14T22:20:29.224Z,9.57
2017-06-14T22:22:57.686Z,9.10
2017-06-14T22:25:26.195Z,8.73
2017-06-14T22:27:54.634Z,8.20
2017-06-14T22:30:23.066Z,9.03
2017-06-14T22:32:51.509Z,10.30
2017-06-14T22:35:20.643Z,10.23
2017-06-14T22:37:49.115Z,9.07
2017-06-14T22:40:17.648Z,10.10
2017-06-14T22:45:22.955Z,11.97
2017-06-14T22:47:51.777Z,8.40
2017-06-14T22:50:20.987Z,10.20
2017-06-14T22:52:49.423Z,14.43
2017-06-14T22:55:17.848Z,9.80
2017-06-14T22:57:46.431Z,10.17
2017-06-14T23:00:14.863Z,9.70
2017-06-14T23:02:43.315Z,9.93
2017-06-14T23:05:11.753Z,10.37
2017-06-14T23:07:40.228Z,11.47
2017-06-14T23:10:09.591Z,10.83
2017-06-14T23:12:38.004Z,10.60
2017-06-14T23:15:06.451Z,10.07
2017-06-14T23:17:34.884Z,11.30
2017-06-14T23:20:04.099Z,10.70
2017-06-14T23:22:33.288Z,10.03
2017-06-14T23:25:02.488Z,10.50
2017-06-14T23:27:31.780Z,10.83
2017-06-14T23:30:00.278Z,10.70
2017-06-14T23:32:29.695Z,10.57
2017-06-14T23:34:58.127Z,10.10
2017-06-14T23:37:26.584Z,11.67
2017-06-14T23:39:55.019Z,10.60
2017-06-14T23:42:24.251Z,11.53
2017-06-14T23:44:52.675Z,10.77
2017-06-14T23:47:21.115Z,9.60
2017-06-14T23:49:49.547Z,10.87
2017-06-14T23:52:17.991Z,11.23
2017-06-14T23:54:46.510Z,10.80
2017-06-14T23:57:14.961Z,11.83
2017-06-14T23:59:43.403Z,11.40
